createdAt,value
2022-10-17T00:02:46.070Z,19.00
2022-10-17T00:07:52.512Z,17.90
2022-10-17T00:12:58.363Z,17.80
2022-10-17T00:18:04.873Z,18.10
2022-10-17T00:23:11.051Z,22.90
2022-10-17T00:28:17.491Z,19.90
2022-10-17T00:33:23.467Z,18.40
2022-10-17T00:38:29.456Z,18.70
2022-10-17T00:43:53.131Z,17.80
2022-10-17T00:49:01.869Z,18.40
2022-10-17T00:54:09.876Z,17.20
2022-10-17T00:59:17.818Z,16.20
2022-10-17T01:04:24.262Z,17.50
2022-10-17T01:09:32.075Z,18.70
2022-10-17T01:14:47.535Z,16.60
2022-10-17T01:20:14.931Z,16.90
2022-10-17T01:25:30.365Z,17.20
2022-10-17T01:30:56.488Z,17.60
2022-10-17T01:36:11.504Z,18.20
2022-10-17T01:41:25.775Z,17.60
2022-10-17T01:46:36.437Z,16.20
2022-10-17T01:51:46.662Z,16.70
2022-10-17T01:56:58.425Z,16.90
2022-10-17T02:02:06.137Z,17.00
2022-10-17T02:07:14.793Z,16.20
2022-10-17T02:12:41.550Z,17.50
2022-10-17T02:17:58.110Z,18.10
2022-10-17T02:23:10.552Z,15.60
2022-10-17T02:28:24.321Z,15.60
2022-10-17T02:33:35.185Z,15.90
2022-10-17T02:38:43.282Z,16.50
2022-10-17T02:43:52.675Z,15.10
2022-10-17T02:49:02.853Z,14.90
2022-10-17T02:54:14.145Z,16.00
2022-10-17T02:59:24.912Z,15.90
2022-10-17T03:04:30.924Z,15.00
2022-10-17T03:09:36.906Z,14.90
2022-10-17T03:14:43.066Z,15.50
2022-10-17T03:19:48.998Z,15.90
2022-10-17T03:24:54.723Z,15.70
2022-10-17T03:30:00.726Z,21.50
2022-10-17T03:35:08.397Z,18.10
2022-10-17T03:40:18.016Z,21.30
2022-10-17T03:45:24.110Z,21.60
2022-10-17T03:50:30.519Z,19.60
2022-10-17T03:55:36.849Z,17.60
2022-10-17T04:00:43.295Z,19.40
2022-10-17T04:05:49.330Z,20.90
2022-10-17T04:11:00.315Z,20.90
2022-10-17T04:16:09.280Z,18.90
2022-10-17T04:21:19.294Z,20.90
2022-10-17T04:26:26.380Z,22.10
2022-10-17T04:31:32.268Z,21.00
2022-10-17T04:36:44.050Z,18.30
2022-10-17T04:41:50.051Z,18.40
2022-10-17T04:46:55.884Z,18.50
2022-10-17T04:52:02.167Z,23.20
2022-10-17T04:57:17.574Z,18.40
2022-10-17T05:02:30.828Z,17.70
2022-10-17T05:07:41.323Z,17.90
2022-10-17T05:12:53.169Z,18.50
2022-10-17T05:18:02.318Z,18.00
2022-10-17T05:23:08.781Z,18.40
2022-10-17T05:28:18.588Z,17.80
2022-10-17T05:33:25.758Z,20.60
2022-10-17T05:38:33.241Z,19.70
2022-10-17T05:43:39.483Z,17.90
2022-10-17T05:48:45.913Z,17.80
2022-10-17T05:53:52.321Z,20.00
2022-10-17T05:59:02.480Z,20.00
2022-10-17T06:04:35.269Z,18.40
2022-10-17T06:09:42.088Z,19.10
2022-10-17T06:14:47.969Z,20.80
2022-10-17T06:19:54.569Z,16.80
2022-10-17T06:25:02.023Z,17.10
2022-10-17T06:30:10.104Z,16.80
2022-10-17T06:35:16.957Z,17.00
2022-10-17T06:40:23.017Z,16.00
2022-10-17T06:45:29.149Z,16.90
2022-10-17T06:51:11.840Z,16.70
2022-10-17T06:56:37.834Z,16.70
2022-10-17T07:01:58.039Z,16.80
2022-10-17T07:07:04.619Z,17.20
2022-10-17T07:12:12.867Z,17.60
2022-10-17T07:17:23.087Z,16.90
2022-10-17T07:22:29.141Z,16.50
2022-10-17T07:27:36.875Z,17.30
2022-10-17T07:32:43.511Z,16.00
2022-10-17T07:37:49.651Z,14.80
2022-10-17T07:42:58.152Z,15.00
2022-10-17T07:48:05.437Z,14.60
2022-10-17T07:53:12.590Z,14.10
2022-10-17T07:58:19.023Z,15.10
2022-10-17T08:03:24.757Z,14.30
2022-10-17T08:08:31.166Z,14.90
2022-10-17T08:13:38.986Z,14.60
2022-10-17T08:18:45.106Z,15.70
2022-10-17T08:23:50.959Z,16.10
2022-10-17T08:28:57.010Z,18.00
2022-10-17T08:34:03.105Z,18.30
2022-10-17T08:39:08.967Z,18.10
2022-10-17T08:44:31.374Z,17.40
2022-10-17T08:49:47.034Z,16.10
2022-10-17T08:54:53.118Z,15.80
2022-10-17T08:59:59.249Z,14.70
2022-10-17T09:05:28.643Z,15.00
2022-10-17T09:16:01.410Z,13.80
2022-10-17T09:21:18.446Z,14.10
2022-10-17T09:26:25.983Z,13.20
2022-10-17T09:31:40.973Z,12.50
2022-10-17T09:36:46.885Z,12.70
2022-10-17T09:41:55.540Z,12.70
2022-10-17T09:47:26.182Z,12.80
2022-10-17T09:52:36.360Z,12.20
2022-10-17T09:57:57.313Z,13.20
2022-10-17T10:03:17.334Z,12.30
2022-10-17T10:08:26.844Z,11.90
2022-10-17T10:13:33.964Z,12.70
2022-10-17T10:18:40.151Z,12.60
2022-10-17T10:24:02.600Z,12.50
2022-10-17T10:29:22.801Z,13.30
2022-10-17T10:34:31.381Z,11.90
2022-10-17T10:39:50.243Z,12.60
2022-10-17T10:44:59.185Z,11.50
2022-10-17T10:50:23.806Z,11.60
2022-10-17T10:55:34.762Z,14.30
2022-10-17T11:09:24.691Z,11.60
2022-10-17T11:14:38.502Z,11.30
2022-10-17T11:19:53.232Z,10.90
2022-10-17T11:25:03.923Z,9.80
2022-10-17T11:30:14.989Z,11.10
2022-10-17T11:35:24.682Z,10.30
2022-10-17T11:40:33.997Z,11.00
2022-10-17T11:55:56.278Z,10.40
2022-10-17T12:01:12.921Z,12.40
2022-10-17T12:06:29.447Z,11.10
2022-10-17T12:11:45.778Z,11.20
2022-10-17T12:16:52.418Z,11.90
2022-10-17T12:22:02.473Z,12.20
2022-10-17T12:27:36.051Z,12.00
2022-10-17T12:33:07.487Z,11.70
2022-10-17T12:38:30.176Z,11.20
2022-10-17T12:49:19.688Z,12.50
2022-10-17T12:54:26.099Z,12.00
2022-10-17T12:59:32.716Z,11.80
2022-10-17T13:04:38.906Z,12.80
2022-10-17T13:09:46.041Z,11.80
2022-10-17T13:14:53.987Z,11.90
2022-10-17T13:20:00.355Z,11.60
2022-10-17T13:25:14.597Z,11.50
2022-10-17T13:30:29.416Z,10.60
2022-10-17T13:41:34.438Z,11.80
2022-10-17T13:46:39.781Z,11.90
2022-10-17T13:51:48.821Z,13.40
2022-10-17T13:56:59.607Z,12.20
2022-10-17T14:02:12.603Z,13.90
2022-10-17T14:07:41.589Z,14.50
2022-10-17T14:12:58.176Z,12.80
2022-10-17T14:18:07.939Z,12.50
2022-10-17T14:28:49.645Z,15.30
2022-10-17T14:33:56.508Z,14.70
2022-10-17T14:39:03.454Z,15.10
2022-10-17T14:44:16.056Z,18.30
2022-10-17T14:50:28.157Z,22.10
2022-10-17T14:55:36.449Z,26.70
2022-10-17T15:00:42.388Z,30.90
2022-10-17T15:05:50.046Z,39.80
2022-10-17T15:10:56.030Z,46.80
2022-10-17T15:16:01.973Z,64.30
2022-10-17T15:22:08.605Z,66.50
2022-10-17T15:27:18.003Z,328.40
2022-10-17T15:32:24.111Z,103.40
2022-10-17T15:37:37.584Z,187.10
2022-10-17T15:42:43.729Z,240.40
2022-10-17T15:47:54.997Z,93.70
2022-10-17T15:53:01.462Z,48.50
2022-10-17T15:58:10.967Z,38.10
2022-10-17T16:03:17.131Z,36.90
2022-10-17T16:08:23.303Z,35.30
2022-10-17T16:13:29.437Z,32.10
2022-10-17T16:18:35.653Z,34.30
2022-10-17T16:23:41.751Z,28.70
2022-10-17T16:28:48.159Z,26.50
2022-10-17T16:33:56.110Z,27.10
2022-10-17T16:39:02.065Z,26.50
2022-10-17T16:44:10.669Z,26.30
2022-10-17T16:49:18.342Z,27.40
2022-10-17T16:54:26.773Z,26.50
2022-10-17T16:59:34.128Z,39.50
2022-10-17T17:04:40.108Z,27.70
2022-10-17T17:09:46.131Z,24.30
2022-10-17T17:14:51.959Z,24.20
2022-10-17T17:19:57.948Z,24.40
2022-10-17T17:25:04.051Z,22.30
2022-10-17T17:30:11.727Z,21.50
2022-10-17T17:35:17.874Z,23.10
2022-10-17T17:40:24.003Z,24.30
2022-10-17T17:45:29.862Z,22.40
2022-10-17T17:50:38.460Z,21.20
2022-10-17T17:55:44.668Z,22.80
2022-10-17T18:00:50.893Z,24.10
2022-10-17T18:05:56.897Z,23.50
2022-10-17T18:11:03.956Z,21.70
2022-10-17T18:16:13.379Z,23.20
2022-10-17T18:21:19.566Z,25.30
2022-10-17T18:26:25.862Z,24.00
2022-10-17T18:31:36.162Z,23.00
2022-10-17T18:36:42.570Z,25.10
2022-10-17T18:41:48.558Z,27.00
2022-10-17T18:46:55.171Z,27.00
2022-10-17T18:52:01.869Z,25.20
2022-10-17T18:57:07.821Z,25.30
2022-10-17T19:02:13.642Z,26.40
2022-10-17T19:07:20.440Z,27.90
2022-10-17T19:12:26.710Z,25.90
2022-10-17T19:17:32.958Z,24.50
2022-10-17T19:22:39.163Z,26.00
2022-10-17T19:27:45.188Z,27.40
2022-10-17T19:32:51.350Z,25.80
2022-10-17T19:37:57.370Z,24.80
2022-10-17T19:43:03.180Z,27.20
2022-10-17T19:48:09.330Z,28.40
2022-10-17T19:53:15.569Z,27.80
2022-10-17T19:58:22.238Z,27.40
2022-10-17T20:03:29.267Z,29.30
2022-10-17T20:08:35.283Z,28.60
2022-10-17T20:13:41.959Z,27.70
2022-10-17T20:18:47.918Z,27.40
2022-10-17T20:23:53.851Z,27.70
2022-10-17T20:29:02.042Z,28.00
2022-10-17T20:34:08.119Z,26.10
2022-10-17T20:39:16.256Z,26.00
2022-10-17T20:44:22.286Z,26.40
2022-10-17T20:49:28.117Z,27.90
2022-10-17T20:54:34.056Z,24.00
2022-10-17T20:59:40.175Z,23.60
2022-10-17T21:04:48.160Z,22.20
2022-10-17T21:09:54.049Z,24.20
2022-10-17T21:15:00.170Z,24.50
2022-10-17T21:20:07.590Z,21.30
2022-10-17T21:25:13.460Z,20.80
2022-10-17T21:30:21.175Z,21.80
2022-10-17T21:35:26.997Z,23.70
2022-10-17T21:40:33.004Z,22.30
2022-10-17T21:45:39.209Z,21.50
2022-10-17T21:50:45.345Z,21.30
2022-10-17T21:55:51.198Z,20.50
2022-10-17T22:01:05.084Z,21.50
2022-10-17T22:06:38.753Z,23.70
2022-10-17T22:11:38.033Z,22.20
2022-10-17T22:16:45.275Z,22.20
2022-10-17T22:21:51.441Z,26.90
2022-10-17T22:26:57.234Z,24.20
2022-10-17T22:32:03.096Z,25.60
2022-10-17T22:37:08.921Z,23.60
2022-10-17T22:42:15.018Z,21.00
2022-10-17T22:47:20.831Z,19.80
2022-10-17T22:52:26.613Z,22.10
2022-10-17T22:57:32.469Z,22.10
2022-10-17T23:02:38.660Z,21.10
2022-10-17T23:07:44.849Z,20.50
2022-10-17T23:12:50.705Z,19.60
2022-10-17T23:17:56.480Z,21.70
2022-10-17T23:23:02.392Z,19.80
2022-10-17T23:28:09.282Z,19.60
2022-10-17T23:33:15.560Z,18.80
2022-10-17T23:38:21.444Z,20.10
2022-10-17T23:43:27.601Z,19.80
2022-10-17T23:48:33.397Z,20.90
2022-10-17T23:53:40.192Z,19.90
2022-10-17T23:58:46.622Z,19.20
